createdAt,value
2023-05-13T00:01:43.078Z,47.94
2023-05-13T00:03:47.169Z,48.07
2023-05-13T00:05:51.719Z,48.00
2023-05-13T00:07:58.616Z,48.39
2023-05-13T00:10:06.408Z,48.29
2023-05-13T00:12:07.998Z,48.28
2023-05-13T00:14:14.934Z,48.42
2023-05-13T00:16:16.571Z,48.48
2023-05-13T00:18:18.130Z,48.38
2023-05-13T00:20:20.161Z,48.39
2023-05-13T00:22:21.763Z,48.64
2023-05-13T00:24:23.501Z,48.42
2023-05-13T00:26:25.050Z,48.64
2023-05-13T00:28:26.858Z,48.54
2023-05-13T00:30:28.543Z,48.65
2023-05-13T00:32:30.118Z,48.54
2023-05-13T00:34:31.755Z,48.68
2023-05-13T00:36:33.197Z,48.56
2023-05-13T00:38:34.798Z,48.87
2023-05-13T00:40:39.531Z,48.73
2023-05-13T00:42:41.225Z,48.51
2023-05-13T00:44:42.704Z,48.89
2023-05-13T00:46:44.495Z,48.92
2023-05-13T00:48:45.969Z,48.84
2023-05-13T00:50:49.625Z,48.80
2023-05-13T00:53:14.064Z,48.73
2023-05-13T00:55:13.863Z,49.14
2023-05-13T00:57:15.382Z,49.20
2023-05-13T00:59:20.071Z,49.00
2023-05-13T01:01:33.266Z,48.98
2023-05-13T01:04:00.476Z,48.93
2023-05-13T01:06:11.834Z,49.36
2023-05-13T01:08:31.008Z,49.20
2023-05-13T01:10:40.560Z,49.30
2023-05-13T01:12:44.969Z,49.29
2023-05-13T01:14:54.935Z,49.37
2023-05-13T01:17:20.349Z,49.28
2023-05-13T01:19:45.074Z,49.37
2023-05-13T01:21:56.344Z,49.48
2023-05-13T01:23:58.215Z,49.23
2023-05-13T01:25:59.963Z,49.41
2023-05-13T01:28:01.831Z,49.42
2023-05-13T01:30:05.240Z,49.44
2023-05-13T01:32:12.505Z,49.50
2023-05-13T01:34:16.006Z,49.33
2023-05-13T01:36:20.686Z,49.62
2023-05-13T01:38:24.844Z,49.60
2023-05-13T01:40:33.046Z,49.82
2023-05-13T01:42:43.097Z,49.80
2023-05-13T01:44:47.812Z,49.97
2023-05-13T01:46:56.530Z,49.86
2023-05-13T01:48:59.085Z,50.00
2023-05-13T01:51:03.399Z,49.65
2023-05-13T01:53:05.145Z,49.92
2023-05-13T01:55:12.819Z,50.10
2023-05-13T01:57:18.847Z,50.07
2023-05-13T01:59:23.258Z,50.08
2023-05-13T02:01:24.802Z,49.91
2023-05-13T02:03:27.622Z,49.95
2023-05-13T02:05:31.756Z,49.98
2023-05-13T02:07:34.584Z,50.16
2023-05-13T02:09:36.181Z,50.38
2023-05-13T02:11:40.904Z,50.08
2023-05-13T02:13:42.812Z,50.24
2023-05-13T02:15:44.273Z,50.37
2023-05-13T02:17:45.996Z,50.21
2023-05-13T02:19:48.280Z,50.22
2023-05-13T02:21:52.783Z,50.19
2023-05-13T02:23:54.439Z,50.36
2023-05-13T02:25:56.657Z,50.28
2023-05-13T02:28:00.443Z,50.38
2023-05-13T02:30:01.977Z,50.58
2023-05-13T02:32:03.747Z,50.61
2023-05-13T02:34:12.946Z,50.58
2023-05-13T02:36:17.412Z,50.65
2023-05-13T02:38:19.801Z,50.58
2023-05-13T02:40:22.369Z,50.85
2023-05-13T02:42:24.773Z,50.70
2023-05-13T02:44:29.333Z,50.92
2023-05-13T02:46:37.888Z,50.89
2023-05-13T02:48:41.751Z,50.89
2023-05-13T02:50:43.379Z,50.86
2023-05-13T02:52:47.363Z,51.00
2023-05-13T02:54:49.265Z,50.88
2023-05-13T02:56:50.928Z,51.11
2023-05-13T02:58:52.658Z,51.07
2023-05-13T03:00:54.235Z,51.06
2023-05-13T03:02:59.047Z,51.22
2023-05-13T03:05:00.792Z,51.22
2023-05-13T03:07:02.362Z,51.20
2023-05-13T03:09:03.849Z,51.20
2023-05-13T03:11:07.796Z,51.26
2023-05-13T03:13:09.277Z,51.23
2023-05-13T03:15:11.473Z,51.48
2023-05-13T03:17:13.174Z,51.30
2023-05-13T03:19:20.408Z,51.38
2023-05-13T03:21:22.320Z,51.42
2023-05-13T03:23:26.241Z,51.15
2023-05-13T03:25:31.352Z,51.25
2023-05-13T03:27:33.829Z,51.43
2023-05-13T03:29:40.673Z,51.58
2023-05-13T03:31:43.090Z,51.50
2023-05-13T03:33:44.754Z,51.51
2023-05-13T03:35:49.700Z,51.68
2023-05-13T03:37:54.051Z,51.68
2023-05-13T03:39:55.844Z,51.74
2023-05-13T03:41:59.510Z,51.70
2023-05-13T03:44:01.961Z,51.94
2023-05-13T03:46:06.152Z,51.89
2023-05-13T03:48:09.039Z,51.93
2023-05-13T03:50:15.742Z,52.09
2023-05-13T03:52:18.814Z,52.26
2023-05-13T03:54:23.439Z,52.27
2023-05-13T03:56:25.316Z,52.32
2023-05-13T03:58:26.932Z,52.39
2023-05-13T04:00:28.486Z,52.41
2023-05-13T04:02:30.136Z,52.26
2023-05-13T04:04:35.197Z,52.34
2023-05-13T04:06:36.859Z,52.48
2023-05-13T04:08:40.498Z,52.31
2023-05-13T04:10:42.423Z,52.44
2023-05-13T04:12:43.893Z,52.21
2023-05-13T04:14:45.361Z,52.28
2023-05-13T04:16:49.583Z,52.33
2023-05-13T04:18:51.489Z,52.43
2023-05-13T04:20:58.975Z,52.50
2023-05-13T04:23:01.630Z,52.33
2023-05-13T04:25:07.903Z,52.73
2023-05-13T04:27:09.710Z,52.67
2023-05-13T04:29:12.513Z,52.59
2023-05-13T04:31:14.078Z,52.74
2023-05-13T04:33:15.778Z,52.86
2023-05-13T04:35:20.431Z,52.80
2023-05-13T04:37:27.301Z,52.91
2023-05-13T04:39:32.647Z,53.00
2023-05-13T04:41:34.225Z,53.11
2023-05-13T04:43:38.243Z,53.17
2023-05-13T04:45:42.147Z,53.34
2023-05-13T04:47:46.996Z,53.48
2023-05-13T04:49:48.677Z,53.41
2023-05-13T04:51:53.518Z,53.62
2023-05-13T04:53:58.364Z,53.44
2023-05-13T04:56:02.786Z,53.57
2023-05-13T04:58:05.350Z,53.95
2023-05-13T05:00:09.521Z,54.10
2023-05-13T05:02:15.468Z,53.96
2023-05-13T05:04:17.074Z,53.83
2023-05-13T05:06:25.574Z,53.93
2023-05-13T05:08:28.765Z,54.08
2023-05-13T05:10:32.058Z,54.15
2023-05-13T05:12:38.249Z,54.11
2023-05-13T05:14:44.769Z,54.15
2023-05-13T05:16:46.439Z,54.05
2023-05-13T05:18:51.547Z,54.19
2023-05-13T05:20:54.551Z,54.21
2023-05-13T05:22:59.950Z,54.20
2023-05-13T05:25:03.617Z,54.43
2023-05-13T05:27:06.045Z,54.52
2023-05-13T05:29:09.756Z,54.54
2023-05-13T05:31:11.906Z,54.73
2023-05-13T05:33:14.502Z,54.58
2023-05-13T05:35:17.512Z,54.61
2023-05-13T05:37:19.230Z,54.70
2023-05-13T05:39:20.923Z,54.80
2023-05-13T05:41:22.810Z,54.77
2023-05-13T05:43:27.239Z,55.05
2023-05-13T05:45:28.879Z,55.14
2023-05-13T05:47:33.754Z,55.38
2023-05-13T05:49:35.771Z,55.05
2023-05-13T05:51:37.434Z,55.27
2023-05-13T05:53:42.168Z,55.24
2023-05-13T05:55:46.264Z,55.36
2023-05-13T05:57:51.343Z,55.43
2023-05-13T05:59:53.432Z,55.31
2023-05-13T06:01:56.123Z,55.61
2023-05-13T06:03:57.837Z,55.53
2023-05-13T06:06:02.485Z,55.73
2023-05-13T06:08:05.079Z,55.36
2023-05-13T06:10:08.335Z,55.61
2023-05-13T06:12:13.276Z,55.33
2023-05-13T06:14:16.897Z,55.49
2023-05-13T06:16:20.909Z,55.64
2023-05-13T06:18:23.003Z,55.56
2023-05-13T06:20:24.676Z,55.68
2023-05-13T06:22:26.211Z,55.84
2023-05-13T06:24:27.730Z,55.89
2023-05-13T06:26:29.759Z,56.10
2023-05-13T06:28:31.329Z,55.79
2023-05-13T06:30:32.955Z,55.80
2023-05-13T06:32:34.604Z,55.94
2023-05-13T06:34:36.145Z,55.89
2023-05-13T06:36:38.868Z,55.61
2023-05-13T06:38:42.479Z,55.62
2023-05-13T06:40:45.518Z,55.72
2023-05-13T06:42:48.262Z,55.62
2023-05-13T06:44:55.710Z,55.72
2023-05-13T06:47:05.610Z,55.50
2023-05-13T06:49:09.925Z,55.49
2023-05-13T06:51:11.487Z,55.63
2023-05-13T06:53:15.876Z,55.33
2023-05-13T06:55:18.850Z,55.56
2023-05-13T06:57:21.918Z,55.20
2023-05-13T06:59:24.917Z,55.12
2023-05-13T07:01:27.233Z,55.04
2023-05-13T07:03:29.534Z,54.80
2023-05-13T07:05:42.824Z,54.87
2023-05-13T07:07:53.116Z,54.67
2023-05-13T07:09:54.695Z,54.64
2023-05-13T07:11:56.305Z,54.51
2023-05-13T07:13:57.887Z,54.42
2023-05-13T07:15:59.400Z,54.44
2023-05-13T07:18:03.145Z,54.31
2023-05-13T07:20:07.519Z,54.32
2023-05-13T07:22:09.431Z,53.81
2023-05-13T07:24:11.042Z,53.95
2023-05-13T07:26:12.577Z,53.77
2023-05-13T07:28:14.137Z,53.98
2023-05-13T07:30:18.749Z,53.97
2023-05-13T07:32:20.369Z,53.79
2023-05-13T07:34:24.715Z,53.54
2023-05-13T07:36:29.434Z,53.53
2023-05-13T07:38:30.881Z,53.58
2023-05-13T07:40:34.758Z,53.58
2023-05-13T07:42:37.417Z,53.44
2023-05-13T07:44:42.769Z,53.19
2023-05-13T07:46:47.610Z,53.49
2023-05-13T07:48:49.421Z,53.41
2023-05-13T07:50:51.233Z,52.97
2023-05-13T07:52:53.078Z,53.26
2023-05-13T07:54:55.068Z,52.92
2023-05-13T07:56:57.369Z,52.97
2023-05-13T07:58:59.017Z,52.48
2023-05-13T08:01:02.070Z,52.05
2023-05-13T08:03:04.077Z,51.78
2023-05-13T08:05:06.692Z,51.85
2023-05-13T08:07:10.603Z,51.68
2023-05-13T08:09:12.706Z,52.00
2023-05-13T08:11:14.262Z,52.10
2023-05-13T08:13:15.818Z,51.99
2023-05-13T08:15:17.823Z,52.12
2023-05-13T08:17:22.803Z,51.86
2023-05-13T08:19:24.349Z,51.61
2023-05-13T08:21:28.630Z,51.55
2023-05-13T08:23:44.290Z,51.70
2023-05-13T08:25:47.950Z,51.49
2023-05-13T08:27:53.801Z,51.07
2023-05-13T08:29:55.482Z,51.17
2023-05-13T08:31:57.265Z,51.08
2023-05-13T08:33:58.897Z,50.96
2023-05-13T08:36:01.092Z,50.74
2023-05-13T08:38:06.048Z,51.13
2023-05-13T08:40:08.221Z,50.98
2023-05-13T08:42:11.370Z,50.77
2023-05-13T08:44:15.791Z,50.83
2023-05-13T08:46:18.813Z,50.77
2023-05-13T08:48:21.690Z,50.67
2023-05-13T08:50:23.529Z,50.85
2023-05-13T08:52:26.271Z,50.77
2023-05-13T08:54:31.614Z,50.52
2023-05-13T08:56:33.230Z,50.01
2023-05-13T08:58:34.772Z,49.62
2023-05-13T09:00:36.876Z,49.58
2023-05-13T09:02:38.560Z,49.18
2023-05-13T09:04:42.341Z,49.35
2023-05-13T09:06:43.899Z,49.48
2023-05-13T09:08:46.864Z,49.42
2023-05-13T09:10:48.582Z,49.19
2023-05-13T09:12:56.685Z,49.15
2023-05-13T09:15:01.463Z,49.19
2023-05-13T09:17:03.562Z,49.25
2023-05-13T09:19:06.687Z,49.26
2023-05-13T09:21:33.793Z,49.09
2023-05-13T09:23:40.617Z,49.00
2023-05-13T09:25:43.425Z,49.04
2023-05-13T09:27:50.782Z,49.16
2023-05-13T09:30:01.832Z,49.11
2023-05-13T09:32:07.133Z,49.23
2023-05-13T09:34:08.549Z,49.30
2023-05-13T09:36:10.215Z,49.42
2023-05-13T09:38:15.554Z,48.98
2023-05-13T09:40:17.577Z,49.14
2023-05-13T09:42:24.132Z,49.05
2023-05-13T09:44:26.637Z,48.77
2023-05-13T09:46:28.325Z,48.72
2023-05-13T09:48:32.158Z,48.59
2023-05-13T09:50:33.928Z,48.38
2023-05-13T09:52:45.559Z,48.57
2023-05-13T09:54:47.131Z,48.05
2023-05-13T09:56:58.773Z,47.91
2023-05-13T09:59:02.010Z,47.57
2023-05-13T10:01:04.667Z,47.48
2023-05-13T10:03:06.397Z,47.07
2023-05-13T10:05:09.090Z,46.92
2023-05-13T10:07:12.352Z,46.81
2023-05-13T10:09:19.559Z,47.17
2023-05-13T10:11:23.846Z,46.89
2023-05-13T10:13:27.156Z,46.71
2023-05-13T10:15:29.365Z,46.69
2023-05-13T10:17:32.914Z,46.53
2023-05-13T10:19:37.970Z,46.87
2023-05-13T10:21:42.846Z,46.73
2023-05-13T10:23:45.891Z,46.88
2023-05-13T10:25:47.714Z,46.79
2023-05-13T10:27:51.096Z,46.83
2023-05-13T10:29:54.692Z,47.01
2023-05-13T10:31:57.317Z,47.02
2023-05-13T10:33:59.325Z,47.09
2023-05-13T10:36:28.095Z,47.31
2023-05-13T10:39:01.352Z,47.61
2023-05-13T10:41:26.952Z,47.83
2023-05-13T10:43:30.026Z,47.78
2023-05-13T10:45:33.443Z,47.95
2023-05-13T10:47:36.131Z,47.81
2023-05-13T10:49:39.289Z,48.24
2023-05-13T10:51:45.958Z,47.77
2023-05-13T10:53:49.955Z,47.82
2023-05-13T10:56:02.316Z,47.80
2023-05-13T10:58:12.081Z,48.10
2023-05-13T11:00:16.021Z,47.79
2023-05-13T11:02:23.345Z,47.86
2023-05-13T11:04:25.086Z,47.95
2023-05-13T11:06:37.994Z,48.15
2023-05-13T11:08:45.140Z,48.20
2023-05-13T11:10:55.301Z,47.90
2023-05-13T11:13:21.768Z,47.91
2023-05-13T11:15:23.278Z,47.79
2023-05-13T11:17:24.907Z,47.60
2023-05-13T11:19:29.055Z,47.75
2023-05-13T11:21:32.014Z,47.68
2023-05-13T11:23:57.633Z,47.56
2023-05-13T11:26:18.977Z,48.07
2023-05-13T11:28:56.021Z,47.81
2023-05-13T11:31:17.275Z,48.09
2023-05-13T11:33:18.974Z,47.92
2023-05-13T11:35:31.904Z,47.48
2023-05-13T11:37:33.544Z,47.77
2023-05-13T11:39:36.260Z,47.55
2023-05-13T11:41:40.564Z,47.26
2023-05-13T11:43:44.788Z,47.34
2023-05-13T11:45:46.531Z,47.20
2023-05-13T11:47:48.308Z,47.24
2023-05-13T11:49:50.421Z,47.22
2023-05-13T11:51:52.351Z,47.06
2023-05-13T11:54:00.585Z,46.38
2023-05-13T11:56:11.101Z,46.13
2023-05-13T11:58:15.745Z,46.50
2023-05-13T12:00:17.706Z,46.82
2023-05-13T12:02:21.820Z,46.57
2023-05-13T12:04:28.331Z,46.76
2023-05-13T12:06:31.288Z,46.36
2023-05-13T12:08:34.306Z,46.20
2023-05-13T12:10:36.074Z,46.24
2023-05-13T12:12:40.035Z,46.21
2023-05-13T12:14:42.396Z,46.02
2023-05-13T12:16:44.335Z,45.81
2023-05-13T12:19:15.053Z,45.55
2023-05-13T12:21:17.400Z,45.84
2023-05-13T12:23:19.147Z,45.79
2023-05-13T12:25:32.994Z,45.43
2023-05-13T12:27:34.596Z,45.53
2023-05-13T12:29:43.443Z,45.40
2023-05-13T12:32:06.111Z,45.29
2023-05-13T12:34:07.854Z,44.54
2023-05-13T12:36:20.120Z,44.44
2023-05-13T12:38:24.514Z,44.85
2023-05-13T12:40:26.805Z,44.73
2023-05-13T12:42:29.035Z,44.40
2023-05-13T12:44:31.608Z,44.29
2023-05-13T12:46:38.192Z,44.28
2023-05-13T12:48:42.909Z,44.39
2023-05-13T12:50:44.445Z,44.64
2023-05-13T12:52:49.108Z,44.73
2023-05-13T12:54:51.051Z,44.33
2023-05-13T12:56:52.957Z,44.37
2023-05-13T12:58:55.022Z,44.24
2023-05-13T13:00:56.881Z,44.26
2023-05-13T13:03:00.870Z,44.56
2023-05-13T13:05:03.393Z,44.38
2023-05-13T13:07:08.691Z,44.51
2023-05-13T13:09:10.171Z,44.42
2023-05-13T13:11:18.234Z,44.22
2023-05-13T13:13:19.736Z,44.25
2023-05-13T13:15:21.373Z,44.09
2023-05-13T13:17:23.103Z,44.36
2023-05-13T13:19:26.143Z,44.49
2023-05-13T13:21:27.781Z,44.65
2023-05-13T13:23:29.305Z,44.66
2023-05-13T13:25:33.144Z,44.45
2023-05-13T13:27:39.928Z,44.49
2023-05-13T13:29:41.887Z,44.63
2023-05-13T13:31:44.948Z,44.81
2023-05-13T13:33:46.805Z,44.82
2023-05-13T13:35:49.630Z,44.83
2023-05-13T13:37:51.057Z,44.64
2023-05-13T13:39:52.578Z,44.49
2023-05-13T13:41:54.530Z,44.50
2023-05-13T13:43:56.096Z,44.67
2023-05-13T13:45:57.580Z,44.80
2023-05-13T13:47:59.901Z,44.75
2023-05-13T13:50:05.709Z,45.01
2023-05-13T13:52:08.196Z,44.92
2023-05-13T13:54:09.649Z,44.65
2023-05-13T13:56:11.285Z,44.75
2023-05-13T13:58:13.276Z,44.76
2023-05-13T14:00:16.085Z,44.81
2023-05-13T14:02:17.839Z,45.16
2023-05-13T14:04:23.170Z,44.89
2023-05-13T14:06:24.842Z,44.81
2023-05-13T14:08:26.385Z,44.67
2023-05-13T14:10:27.966Z,45.22
2023-05-13T14:12:29.671Z,44.81
2023-05-13T14:14:31.747Z,44.59
2023-05-13T14:16:33.486Z,44.94
2023-05-13T14:18:35.112Z,44.83
2023-05-13T14:20:36.677Z,45.12
2023-05-13T14:22:38.121Z,44.81
2023-05-13T14:24:40.019Z,44.94
2023-05-13T14:26:41.787Z,44.82
2023-05-13T14:28:43.910Z,45.00
2023-05-13T14:30:45.479Z,44.98
2023-05-13T14:32:47.477Z,45.11
2023-05-13T14:34:49.321Z,45.05
2023-05-13T14:36:52.386Z,45.02
2023-05-13T14:38:56.845Z,44.96
2023-05-13T14:40:58.502Z,44.78
2023-05-13T14:42:59.965Z,44.95
2023-05-13T14:45:01.567Z,44.78
2023-05-13T14:47:04.314Z,44.45
2023-05-13T14:49:08.154Z,44.10
2023-05-13T14:51:11.157Z,44.39
2023-05-13T14:53:12.835Z,44.03
2023-05-13T14:55:14.466Z,44.36
2023-05-13T14:57:16.117Z,44.36
2023-05-13T14:59:17.596Z,44.24
2023-05-13T15:01:19.637Z,44.18
2023-05-13T15:03:21.244Z,44.50
2023-05-13T15:05:22.959Z,44.22
2023-05-13T15:07:27.463Z,44.49
2023-05-13T15:09:29.027Z,44.14
2023-05-13T15:11:30.782Z,44.39
2023-05-13T15:13:35.257Z,44.40
2023-05-13T15:15:36.992Z,44.36
2023-05-13T15:17:38.738Z,44.18
2023-05-13T15:19:43.168Z,44.37
2023-05-13T15:21:44.860Z,43.96
2023-05-13T15:23:46.412Z,44.09
2023-05-13T15:25:48.439Z,43.93
2023-05-13T15:27:51.292Z,43.87
2023-05-13T15:29:53.667Z,43.80
2023-05-13T15:31:55.586Z,43.99
2023-05-13T15:33:57.617Z,43.85
2023-05-13T15:35:59.623Z,43.80
2023-05-13T15:38:04.106Z,43.87
2023-05-13T15:40:06.407Z,44.38
2023-05-13T15:42:10.841Z,44.22
2023-05-13T15:44:15.072Z,44.38
2023-05-13T15:46:17.832Z,44.26
2023-05-13T15:48:19.564Z,44.32
2023-05-13T15:50:21.292Z,44.28
2023-05-13T15:52:23.050Z,44.28
2023-05-13T15:54:24.532Z,44.66
2023-05-13T15:56:26.022Z,44.67
2023-05-13T15:58:27.686Z,44.61
2023-05-13T16:00:29.217Z,44.34
2023-05-13T16:02:37.441Z,44.67
2023-05-13T16:04:39.189Z,44.50
2023-05-13T16:06:43.511Z,44.59
2023-05-13T16:08:45.599Z,44.62
2023-05-13T16:10:47.077Z,44.69
2023-05-13T16:12:48.915Z,44.96
2023-05-13T16:14:52.854Z,44.78
2023-05-13T16:16:57.781Z,44.81
2023-05-13T16:18:59.496Z,44.68
2023-05-13T16:21:01.149Z,44.29
2023-05-13T16:23:02.654Z,44.54
2023-05-13T16:25:06.934Z,44.67
2023-05-13T16:27:08.507Z,44.72
2023-05-13T16:29:10.186Z,44.54
2023-05-13T16:31:11.698Z,44.70
2023-05-13T16:33:15.946Z,44.80
2023-05-13T16:35:17.481Z,44.89
2023-05-13T16:37:18.924Z,44.75
2023-05-13T16:39:20.437Z,44.66
2023-05-13T16:41:22.761Z,45.02
2023-05-13T16:43:24.691Z,45.02
2023-05-13T16:45:28.484Z,44.72
2023-05-13T16:47:31.434Z,45.12
2023-05-13T16:49:32.975Z,44.79
2023-05-13T16:51:34.474Z,44.96
2023-05-13T16:53:35.953Z,44.88
2023-05-13T16:55:37.608Z,44.96
2023-05-13T16:57:41.609Z,44.96
2023-05-13T16:59:43.305Z,44.98
2023-05-13T17:01:44.889Z,44.71
2023-05-13T17:03:46.900Z,45.02
2023-05-13T17:05:48.355Z,44.47
2023-05-13T17:07:49.812Z,44.60
2023-05-13T17:09:51.335Z,44.65
2023-05-13T17:11:54.477Z,44.81
2023-05-13T17:13:55.913Z,44.75
2023-05-13T17:15:57.456Z,44.71
2023-05-13T17:17:58.966Z,44.40
2023-05-13T17:20:00.802Z,44.70
2023-05-13T17:22:02.850Z,44.64
2023-05-13T17:24:05.422Z,44.48
2023-05-13T17:26:06.924Z,44.50
2023-05-13T17:28:10.574Z,44.42
2023-05-13T17:30:16.017Z,44.33
2023-05-13T17:32:17.915Z,44.00
2023-05-13T17:34:19.938Z,44.42
2023-05-13T17:36:22.229Z,43.86
2023-05-13T17:38:24.637Z,44.20
2023-05-13T17:40:26.498Z,43.77
2023-05-13T17:42:30.230Z,44.02
2023-05-13T17:44:31.953Z,43.96
2023-05-13T17:46:39.797Z,43.82
2023-05-13T17:48:42.404Z,43.71
2023-05-13T17:50:44.097Z,43.89
2023-05-13T17:52:45.723Z,44.11
2023-05-13T17:54:47.505Z,43.69
2023-05-13T17:56:50.084Z,44.03
2023-05-13T17:58:51.493Z,43.94
2023-05-13T18:00:56.136Z,43.61
2023-05-13T18:02:58.126Z,43.69
2023-05-13T18:04:59.735Z,44.01
2023-05-13T18:07:01.438Z,43.89
2023-05-13T18:09:03.005Z,43.87
2023-05-13T18:11:04.708Z,43.94
2023-05-13T18:13:06.379Z,43.68
2023-05-13T18:15:08.657Z,43.92
2023-05-13T18:17:10.357Z,43.70
2023-05-13T18:19:12.200Z,43.60
2023-05-13T18:21:14.066Z,43.43
2023-05-13T18:23:15.668Z,43.70
2023-05-13T18:25:23.201Z,43.61
2023-05-13T18:27:25.935Z,43.50
2023-05-13T18:29:27.723Z,43.84
2023-05-13T18:31:35.044Z,43.40
2023-05-13T18:33:36.816Z,43.62
2023-05-13T18:35:39.950Z,43.26
2023-05-13T18:37:42.165Z,43.49
2023-05-13T18:39:46.136Z,43.51
2023-05-13T18:41:48.698Z,43.44
2023-05-13T18:43:50.387Z,43.54
2023-05-13T18:45:51.975Z,43.45
2023-05-13T18:47:55.676Z,43.62
2023-05-13T18:49:57.251Z,43.75
2023-05-13T18:51:59.034Z,43.24
2023-05-13T18:54:01.269Z,43.54
2023-05-13T18:56:03.092Z,43.40
2023-05-13T18:58:04.913Z,43.38
2023-05-13T19:00:07.131Z,43.52
2023-05-13T19:02:08.968Z,43.78
2023-05-13T19:04:12.335Z,43.76
2023-05-13T19:06:15.690Z,43.59
2023-05-13T19:08:17.199Z,43.98
2023-05-13T19:10:22.028Z,43.45
2023-05-13T19:12:23.845Z,43.93
2023-05-13T19:14:25.599Z,44.01
2023-05-13T19:16:27.389Z,43.92
2023-05-13T19:18:29.240Z,43.91
2023-05-13T19:20:30.795Z,44.00
2023-05-13T19:22:32.491Z,43.90
2023-05-13T19:24:34.204Z,44.02
2023-05-13T19:26:36.031Z,44.05
2023-05-13T19:28:38.160Z,44.13
2023-05-13T19:30:41.235Z,44.19
2023-05-13T19:32:44.143Z,44.25
2023-05-13T19:34:45.608Z,44.11
2023-05-13T19:36:47.507Z,44.22
2023-05-13T19:38:49.628Z,44.27
2023-05-13T19:40:54.935Z,44.30
2023-05-13T19:42:56.596Z,44.28
2023-05-13T19:44:58.144Z,44.29
2023-05-13T19:46:59.910Z,44.33
2023-05-13T19:49:01.474Z,44.45
2023-05-13T19:51:03.090Z,44.53
2023-05-13T19:53:04.758Z,44.58
2023-05-13T19:55:07.902Z,44.57
2023-05-13T19:57:09.625Z,44.58
2023-05-13T19:59:11.058Z,44.76
2023-05-13T20:01:14.749Z,44.69
2023-05-13T20:03:19.166Z,44.67
2023-05-13T20:05:20.821Z,44.53
2023-05-13T20:07:22.681Z,44.69
2023-05-13T20:09:24.313Z,44.63
2023-05-13T20:11:26.678Z,44.93
2023-05-13T20:13:28.345Z,44.76
2023-05-13T20:15:30.048Z,44.85
2023-05-13T20:17:31.927Z,44.80
2023-05-13T20:19:33.501Z,44.89
2023-05-13T20:21:35.117Z,44.85
2023-05-13T20:23:36.615Z,44.88
2023-05-13T20:25:38.107Z,44.76
2023-05-13T20:27:39.694Z,45.00
2023-05-13T20:29:43.580Z,45.02
2023-05-13T20:31:45.120Z,45.00
2023-05-13T20:33:46.780Z,45.31
2023-05-13T20:35:51.273Z,45.21
2023-05-13T20:37:52.956Z,45.15
2023-05-13T20:39:54.718Z,45.40
2023-05-13T20:41:57.049Z,45.12
2023-05-13T20:43:58.517Z,45.35
2023-05-13T20:46:02.303Z,45.37
2023-05-13T20:48:04.093Z,45.49
2023-05-13T20:50:07.150Z,45.51
2023-05-13T20:52:09.410Z,45.36
2023-05-13T20:54:13.144Z,45.45
2023-05-13T20:56:16.816Z,45.55
2023-05-13T20:58:18.348Z,45.71
2023-05-13T21:00:20.220Z,45.73
2023-05-13T21:02:21.882Z,45.75
2023-05-13T21:04:25.451Z,45.89
2023-05-13T21:06:27.331Z,45.71
2023-05-13T21:08:29.117Z,45.89
2023-05-13T21:10:37.970Z,45.89
2023-05-13T21:12:40.644Z,45.84
2023-05-13T21:14:45.193Z,46.10
2023-05-13T21:16:50.007Z,46.19
2023-05-13T21:18:51.542Z,45.85
2023-05-13T21:20:53.260Z,46.22
2023-05-13T21:22:54.777Z,46.18
2023-05-13T21:24:56.514Z,46.14
2023-05-13T21:26:57.981Z,46.22
2023-05-13T21:28:59.553Z,46.37
2023-05-13T21:31:01.240Z,46.37
2023-05-13T21:33:03.100Z,46.25
2023-05-13T21:35:05.388Z,46.44
2023-05-13T21:37:08.173Z,46.45
2023-05-13T21:39:10.612Z,46.42
2023-05-13T21:41:14.859Z,46.44
2023-05-13T21:43:16.528Z,46.43
2023-05-13T21:45:19.430Z,46.54
2023-05-13T21:47:23.589Z,46.58
2023-05-13T21:49:25.291Z,46.83
2023-05-13T21:51:27.143Z,46.78
2023-05-13T21:53:28.804Z,46.74
2023-05-13T21:55:34.776Z,46.70
2023-05-13T21:57:36.344Z,46.81
2023-05-13T21:59:38.237Z,46.89
2023-05-13T22:01:39.889Z,46.91
2023-05-13T22:03:41.956Z,46.95
2023-05-13T22:05:44.153Z,47.08
2023-05-13T22:07:46.293Z,47.01
2023-05-13T22:09:49.672Z,46.96
2023-05-13T22:11:51.963Z,47.28
2023-05-13T22:13:53.520Z,47.04
2023-05-13T22:15:55.215Z,47.13
2023-05-13T22:17:57.370Z,47.24
2023-05-13T22:19:58.914Z,47.23
2023-05-13T22:22:00.588Z,47.16
2023-05-13T22:24:02.317Z,47.51
2023-05-13T22:26:04.974Z,47.49
2023-05-13T22:28:09.970Z,47.47
2023-05-13T22:30:11.645Z,47.34
2023-05-13T22:32:17.997Z,47.63
2023-05-13T22:34:19.616Z,47.66
2023-05-13T22:36:21.350Z,47.55
2023-05-13T22:38:22.861Z,47.61
2023-05-13T22:40:24.621Z,47.65
2023-05-13T22:42:27.271Z,47.71
2023-05-13T22:44:28.808Z,47.83
2023-05-13T22:46:30.394Z,47.84
2023-05-13T22:48:32.153Z,47.80
2023-05-13T22:50:36.921Z,47.78
2023-05-13T22:52:38.446Z,47.91
2023-05-13T22:54:42.106Z,47.99
2023-05-13T22:56:43.744Z,47.93
2023-05-13T22:58:45.969Z,48.03
2023-05-13T23:00:48.977Z,48.06
2023-05-13T23:02:50.635Z,48.18
2023-05-13T23:04:52.729Z,48.37
2023-05-13T23:06:54.214Z,48.35
2023-05-13T23:08:55.711Z,48.12
2023-05-13T23:10:57.642Z,48.38
2023-05-13T23:12:59.706Z,48.29
2023-05-13T23:15:01.555Z,48.52
2023-05-13T23:17:03.203Z,48.53
2023-05-13T23:19:04.785Z,48.54
2023-05-13T23:21:10.118Z,48.34
2023-05-13T23:23:11.699Z,48.28
2023-05-13T23:25:20.664Z,48.40
2023-05-13T23:27:22.187Z,48.50
2023-05-13T23:29:27.459Z,48.54
2023-05-13T23:31:29.094Z,48.66
2023-05-13T23:33:30.742Z,48.73
2023-05-13T23:35:32.508Z,48.66
2023-05-13T23:37:34.024Z,48.51
2023-05-13T23:39:35.879Z,48.49
2023-05-13T23:41:37.442Z,48.82
2023-05-13T23:43:40.104Z,48.53
2023-05-13T23:45:41.622Z,48.78
2023-05-13T23:47:44.466Z,48.83
2023-05-13T23:49:45.995Z,48.73
2023-05-13T23:51:47.550Z,49.12
2023-05-13T23:53:49.627Z,48.81
2023-05-13T23:55:51.341Z,48.84
2023-05-13T23:57:52.997Z,48.89
2023-05-13T23:59:54.573Z,48.87
